Terminal Aerodrome Forecast
Issued by NWS Boston, MA

Home | Current Version | Previous Version | Text Only | Print | Product List | Glossary On
Versions: 1 2 3 4 5 6 7 8 9 10 11 12 13 14 15 16 17 18 19 20 21 22 23 24 25 26 27 28 29 30 31 32 33 34 35 36 37 38 39 40 41 42 43 44 45 46 47 48
000
FTUS41 KBOX 251720
TAFBDL
TAF
KBDL 251720Z 2518/2624 30018G25KT P6SM SCT035
     FM252100 31011G20KT P6SM FEW250
     FM260300 VRB03KT P6SM FEW200
     FM260900 01004KT P6SM BKN090
     FM261800 02007KT P6SM OVC050
     FM262100 03009KT 2SM -SN OVC020=

USA.gov is the U.S. government's official web portal to all federal, state and local government web resources and services.